sensor_id;sensor_type;location;lat;lon;timestamp;P1;durP1;ratioP1;P2;durP2;ratioP2
23181;SDS011;11759;51.282;6.642;2024-03-06T00:02:22;65.22;;;21.23;;
23181;SDS011;11759;51.282;6.642;2024-03-06T00:04:48;68.97;;;21.35;;
23181;SDS011;11759;51.282;6.642;2024-03-06T00:07:15;72.13;;;24.50;;
23181;SDS011;11759;51.282;6.642;2024-03-06T00:09:42;76.75;;;23.95;;
23181;SDS011;11759;51.282;6.642;2024-03-06T00:12:09;84.53;;;25.38;;
23181;SDS011;11759;51.282;6.642;2024-03-06T00:14:36;65.47;;;22.10;;
23181;SDS011;11759;51.282;6.642;2024-03-06T00:17:03;80.65;;;24.23;;
23181;SDS011;11759;51.282;6.642;2024-03-06T00:19:31;87.70;;;25.77;;
23181;SDS011;11759;51.282;6.642;2024-03-06T00:21:58;73.78;;;25.85;;
23181;SDS011;11759;51.282;6.642;2024-03-06T00:24:24;83.97;;;25.08;;
23181;SDS011;11759;51.282;6.642;2024-03-06T00:26:51;75.47;;;24.38;;
23181;SDS011;11759;51.282;6.642;2024-03-06T00:29:18;72.05;;;23.83;;
23181;SDS011;11759;51.282;6.642;2024-03-06T00:31:44;85.55;;;23.67;;
23181;SDS011;11759;51.282;6.642;2024-03-06T00:34:12;77.32;;;23.63;;
23181;SDS011;11759;51.282;6.642;2024-03-06T00:36:40;82.05;;;24.70;;
23181;SDS011;11759;51.282;6.642;2024-03-06T00:39:07;77.68;;;24.25;;
23181;SDS011;11759;51.282;6.642;2024-03-06T00:41:34;77.20;;;24.10;;
23181;SDS011;11759;51.282;6.642;2024-03-06T00:44:01;89.85;;;25.02;;
23181;SDS011;11759;51.282;6.642;2024-03-06T00:46:29;79.13;;;24.25;;
23181;SDS011;11759;51.282;6.642;2024-03-06T00:48:55;82.07;;;23.98;;
23181;SDS011;11759;51.282;6.642;2024-03-06T00:51:22;70.32;;;22.95;;
23181;SDS011;11759;51.282;6.642;2024-03-06T00:54:06;65.60;;;21.50;;
23181;SDS011;11759;51.282;6.642;2024-03-06T00:56:36;72.05;;;22.85;;
23181;SDS011;11759;51.282;6.642;2024-03-06T00:59:06;77.82;;;23.67;;
23181;SDS011;11759;51.282;6.642;2024-03-06T01:01:34;85.85;;;24.83;;
23181;SDS011;11759;51.282;6.642;2024-03-06T01:04:01;83.07;;;22.70;;
23181;SDS011;11759;51.282;6.642;2024-03-06T01:06:28;64.30;;;22.45;;
23181;SDS011;11759;51.282;6.642;2024-03-06T01:08:55;68.93;;;22.27;;
23181;SDS011;11759;51.282;6.642;2024-03-06T01:11:23;73.72;;;23.67;;
23181;SDS011;11759;51.282;6.642;2024-03-06T01:13:49;79.63;;;23.10;;
23181;SDS011;11759;51.282;6.642;2024-03-06T01:16:16;76.20;;;23.27;;
23181;SDS011;11759;51.282;6.642;2024-03-06T01:18:43;62.67;;;23.27;;
23181;SDS011;11759;51.282;6.642;2024-03-06T01:21:10;72.72;;;24.50;;
23181;SDS011;11759;51.282;6.642;2024-03-06T01:23:37;67.15;;;22.05;;
23181;SDS011;11759;51.282;6.642;2024-03-06T01:26:03;75.38;;;24.35;;
23181;SDS011;11759;51.282;6.642;2024-03-06T01:28:30;75.97;;;23.15;;
23181;SDS011;11759;51.282;6.642;2024-03-06T01:30:57;78.65;;;22.13;;
23181;SDS011;11759;51.282;6.642;2024-03-06T01:33:25;83.97;;;23.88;;
23181;SDS011;11759;51.282;6.642;2024-03-06T01:35:52;82.40;;;24.05;;
23181;SDS011;11759;51.282;6.642;2024-03-06T01:38:19;67.88;;;22.35;;
23181;SDS011;11759;51.282;6.642;2024-03-06T01:40:46;70.82;;;22.27;;
23181;SDS011;11759;51.282;6.642;2024-03-06T01:43:22;80.30;;;24.88;;
23181;SDS011;11759;51.282;6.642;2024-03-06T01:45:51;75.60;;;22.95;;
23181;SDS011;11759;51.282;6.642;2024-03-06T01:48:26;71.35;;;23.45;;
23181;SDS011;11759;51.282;6.642;2024-03-06T01:50:57;73.72;;;23.13;;
23181;SDS011;11759;51.282;6.642;2024-03-06T01:53:27;63.45;;;22.40;;
23181;SDS011;11759;51.282;6.642;2024-03-06T01:55:54;75.40;;;22.52;;
23181;SDS011;11759;51.282;6.642;2024-03-06T01:58:21;69.28;;;24.20;;
23181;SDS011;11759;51.282;6.642;2024-03-06T02:00:48;68.15;;;24.08;;
23181;SDS011;11759;51.282;6.642;2024-03-06T02:03:16;71.55;;;24.35;;
23181;SDS011;11759;51.282;6.642;2024-03-06T02:05:44;66.13;;;22.02;;
23181;SDS011;11759;51.282;6.642;2024-03-06T02:08:10;71.45;;;21.73;;
23181;SDS011;11759;51.282;6.642;2024-03-06T02:10:37;74.05;;;23.25;;
23181;SDS011;11759;51.282;6.642;2024-03-06T02:13:04;78.00;;;23.48;;
23181;SDS011;11759;51.282;6.642;2024-03-06T02:15:31;68.45;;;23.27;;
23181;SDS011;11759;51.282;6.642;2024-03-06T02:17:58;74.18;;;23.48;;
23181;SDS011;11759;51.282;6.642;2024-03-06T02:20:25;73.15;;;23.92;;
23181;SDS011;11759;51.282;6.642;2024-03-06T02:22:52;74.40;;;25.10;;
23181;SDS011;11759;51.282;6.642;2024-03-06T02:25:19;67.63;;;23.70;;
23181;SDS011;11759;51.282;6.642;2024-03-06T02:27:46;76.05;;;22.52;;
23181;SDS011;11759;51.282;6.642;2024-03-06T02:30:18;67.25;;;21.15;;
23181;SDS011;11759;51.282;6.642;2024-03-06T02:32:45;75.78;;;24.80;;
23181;SDS011;11759;51.282;6.642;2024-03-06T02:35:13;70.20;;;22.75;;
23181;SDS011;11759;51.282;6.642;2024-03-06T02:37:41;71.63;;;22.35;;
23181;SDS011;11759;51.282;6.642;2024-03-06T02:40:10;78.20;;;23.13;;
23181;SDS011;11759;51.282;6.642;2024-03-06T02:42:36;79.00;;;24.88;;
23181;SDS011;11759;51.282;6.642;2024-03-06T02:45:05;84.93;;;24.17;;
23181;SDS011;11759;51.282;6.642;2024-03-06T02:47:33;82.88;;;25.27;;
23181;SDS011;11759;51.282;6.642;2024-03-06T02:50:00;79.18;;;25.80;;
23181;SDS011;11759;51.282;6.642;2024-03-06T02:52:27;84.00;;;24.38;;
23181;SDS011;11759;51.282;6.642;2024-03-06T02:54:53;80.95;;;25.52;;
23181;SDS011;11759;51.282;6.642;2024-03-06T02:57:20;67.57;;;25.13;;
23181;SDS011;11759;51.282;6.642;2024-03-06T02:59:48;84.68;;;25.20;;
23181;SDS011;11759;51.282;6.642;2024-03-06T03:02:15;77.13;;;23.83;;
23181;SDS011;11759;51.282;6.642;2024-03-06T03:04:42;82.45;;;24.95;;
23181;SDS011;11759;51.282;6.642;2024-03-06T03:07:09;88.70;;;25.20;;
23181;SDS011;11759;51.282;6.642;2024-03-06T03:09:36;82.18;;;24.83;;
23181;SDS011;11759;51.282;6.642;2024-03-06T03:12:05;78.13;;;23.40;;
23181;SDS011;11759;51.282;6.642;2024-03-06T03:14:32;93.03;;;25.95;;
23181;SDS011;11759;51.282;6.642;2024-03-06T03:17:00;86.22;;;25.60;;
23181;SDS011;11759;51.282;6.642;2024-03-06T03:19:26;82.95;;;25.02;;
23181;SDS011;11759;51.282;6.642;2024-03-06T03:21:53;86.85;;;24.92;;
23181;SDS011;11759;51.282;6.642;2024-03-06T03:24:20;81.47;;;26.40;;
23181;SDS011;11759;51.282;6.642;2024-03-06T03:26:48;78.45;;;23.95;;
23181;SDS011;11759;51.282;6.642;2024-03-06T03:29:14;76.40;;;23.55;;
23181;SDS011;11759;51.282;6.642;2024-03-06T03:31:41;80.30;;;25.90;;
23181;SDS011;11759;51.282;6.642;2024-03-06T03:34:08;85.70;;;26.10;;
23181;SDS011;11759;51.282;6.642;2024-03-06T03:36:40;133.15;;;29.45;;
23181;SDS011;11759;51.282;6.642;2024-03-06T03:39:10;78.93;;;25.40;;
23181;SDS011;11759;51.282;6.642;2024-03-06T03:41:43;76.63;;;25.98;;
23181;SDS011;11759;51.282;6.642;2024-03-06T03:44:10;92.43;;;25.83;;
23181;SDS011;11759;51.282;6.642;2024-03-06T03:46:38;74.32;;;24.02;;
23181;SDS011;11759;51.282;6.642;2024-03-06T03:49:05;90.78;;;26.25;;
23181;SDS011;11759;51.282;6.642;2024-03-06T03:51:32;81.78;;;23.77;;
23181;SDS011;11759;51.282;6.642;2024-03-06T03:53:59;88.72;;;25.48;;
23181;SDS011;11759;51.282;6.642;2024-03-06T03:56:25;74.43;;;22.95;;
23181;SDS011;11759;51.282;6.642;2024-03-06T03:58:52;70.82;;;22.98;;
23181;SDS011;11759;51.282;6.642;2024-03-06T04:01:19;89.55;;;25.65;;
23181;SDS011;11759;51.282;6.642;2024-03-06T04:03:46;81.70;;;23.38;;
23181;SDS011;11759;51.282;6.642;2024-03-06T04:06:12;81.72;;;25.02;;
23181;SDS011;11759;51.282;6.642;2024-03-06T04:08:39;76.88;;;23.10;;
23181;SDS011;11759;51.282;6.642;2024-03-06T04:11:07;87.85;;;25.15;;
23181;SDS011;11759;51.282;6.642;2024-03-06T04:13:37;88.45;;;24.48;;
23181;SDS011;11759;51.282;6.642;2024-03-06T04:16:04;79.88;;;24.92;;
23181;SDS011;11759;51.282;6.642;2024-03-06T04:18:32;102.15;;;26.85;;
23181;SDS011;11759;51.282;6.642;2024-03-06T04:21:02;85.95;;;23.67;;
23181;SDS011;11759;51.282;6.642;2024-03-06T04:23:32;75.50;;;24.55;;
23181;SDS011;11759;51.282;6.642;2024-03-06T04:26:00;88.65;;;25.33;;
23181;SDS011;11759;51.282;6.642;2024-03-06T04:28:27;94.38;;;26.02;;
23181;SDS011;11759;51.282;6.642;2024-03-06T04:30:54;98.45;;;25.73;;
23181;SDS011;11759;51.282;6.642;2024-03-06T04:33:21;98.85;;;27.17;;
23181;SDS011;11759;51.282;6.642;2024-03-06T04:35:48;103.50;;;28.42;;
23181;SDS011;11759;51.282;6.642;2024-03-06T04:38:14;90.30;;;25.15;;
23181;SDS011;11759;51.282;6.642;2024-03-06T04:40:41;86.80;;;24.75;;
23181;SDS011;11759;51.282;6.642;2024-03-06T04:43:08;95.75;;;26.70;;
23181;SDS011;11759;51.282;6.642;2024-03-06T04:45:35;89.95;;;24.55;;
23181;SDS011;11759;51.282;6.642;2024-03-06T04:48:02;86.95;;;25.30;;
23181;SDS011;11759;51.282;6.642;2024-03-06T04:50:29;97.22;;;26.33;;
23181;SDS011;11759;51.282;6.642;2024-03-06T04:52:55;88.43;;;24.35;;
23181;SDS011;11759;51.282;6.642;2024-03-06T04:55:22;88.10;;;23.83;;
23181;SDS011;11759;51.282;6.642;2024-03-06T04:57:49;83.78;;;25.73;;
23181;SDS011;11759;51.282;6.642;2024-03-06T05:00:16;76.63;;;22.92;;
23181;SDS011;11759;51.282;6.642;2024-03-06T05:02:44;87.88;;;25.83;;
23181;SDS011;11759;51.282;6.642;2024-03-06T05:05:29;81.15;;;25.30;;
23181;SDS011;11759;51.282;6.642;2024-03-06T05:08:13;85.78;;;24.02;;
23181;SDS011;11759;51.282;6.642;2024-03-06T05:10:59;94.90;;;24.85;;
23181;SDS011;11759;51.282;6.642;2024-03-06T05:13:44;90.75;;;24.88;;
23181;SDS011;11759;51.282;6.642;2024-03-06T05:16:29;124.93;;;28.50;;
23181;SDS011;11759;51.282;6.642;2024-03-06T05:19:13;116.03;;;26.58;;
23181;SDS011;11759;51.282;6.642;2024-03-06T05:21:58;93.22;;;26.10;;
23181;SDS011;11759;51.282;6.642;2024-03-06T05:24:43;95.00;;;24.33;;
23181;SDS011;11759;51.282;6.642;2024-03-06T05:27:27;87.22;;;24.23;;
23181;SDS011;11759;51.282;6.642;2024-03-06T05:30:12;102.20;;;27.27;;
23181;SDS011;11759;51.282;6.642;2024-03-06T05:32:56;114.00;;;28.02;;
23181;SDS011;11759;51.282;6.642;2024-03-06T05:35:40;97.70;;;27.55;;
23181;SDS011;11759;51.282;6.642;2024-03-06T05:38:24;93.57;;;24.73;;
23181;SDS011;11759;51.282;6.642;2024-03-06T05:41:08;93.15;;;25.27;;
23181;SDS011;11759;51.282;6.642;2024-03-06T05:43:53;97.70;;;24.98;;
23181;SDS011;11759;51.282;6.642;2024-03-06T05:46:37;107.00;;;24.73;;
23181;SDS011;11759;51.282;6.642;2024-03-06T05:49:21;85.95;;;23.45;;
23181;SDS011;11759;51.282;6.642;2024-03-06T05:52:05;94.55;;;27.08;;
23181;SDS011;11759;51.282;6.642;2024-03-06T05:54:50;104.55;;;25.30;;
23181;SDS011;11759;51.282;6.642;2024-03-06T05:57:34;95.63;;;27.55;;
23181;SDS011;11759;51.282;6.642;2024-03-06T06:00:18;98.85;;;26.40;;
23181;SDS011;11759;51.282;6.642;2024-03-06T06:02:48;114.38;;;27.17;;
23181;SDS011;11759;51.282;6.642;2024-03-06T06:05:15;98.93;;;27.38;;
23181;SDS011;11759;51.282;6.642;2024-03-06T06:07:52;101.50;;;28.10;;
23181;SDS011;11759;51.282;6.642;2024-03-06T06:10:19;124.25;;;29.25;;
23181;SDS011;11759;51.282;6.642;2024-03-06T06:12:48;119.90;;;28.98;;
23181;SDS011;11759;51.282;6.642;2024-03-06T06:15:15;112.68;;;28.35;;
23181;SDS011;11759;51.282;6.642;2024-03-06T06:17:42;116.03;;;28.95;;
23181;SDS011;11759;51.282;6.642;2024-03-06T06:20:11;90.88;;;26.52;;
23181;SDS011;11759;51.282;6.642;2024-03-06T06:22:42;131.43;;;31.30;;
23181;SDS011;11759;51.282;6.642;2024-03-06T06:25:08;109.60;;;27.13;;
23181;SDS011;11759;51.282;6.642;2024-03-06T06:27:36;114.68;;;28.40;;
23181;SDS011;11759;51.282;6.642;2024-03-06T06:30:03;109.22;;;27.70;;
23181;SDS011;11759;51.282;6.642;2024-03-06T06:32:33;118.80;;;29.63;;
23181;SDS011;11759;51.282;6.642;2024-03-06T06:35:00;129.60;;;30.67;;
23181;SDS011;11759;51.282;6.642;2024-03-06T06:37:27;122.00;;;28.95;;
23181;SDS011;11759;51.282;6.642;2024-03-06T06:39:53;149.88;;;30.38;;
23181;SDS011;11759;51.282;6.642;2024-03-06T06:42:20;205.18;;;35.70;;
23181;SDS011;11759;51.282;6.642;2024-03-06T06:44:47;158.70;;;33.55;;
23181;SDS011;11759;51.282;6.642;2024-03-06T06:47:13;223.35;;;34.50;;
23181;SDS011;11759;51.282;6.642;2024-03-06T06:49:40;132.70;;;31.98;;
23181;SDS011;11759;51.282;6.642;2024-03-06T06:52:07;143.82;;;34.60;;
23181;SDS011;11759;51.282;6.642;2024-03-06T06:54:34;132.18;;;34.30;;
23181;SDS011;11759;51.282;6.642;2024-03-06T06:57:01;136.38;;;32.65;;
23181;SDS011;11759;51.282;6.642;2024-03-06T06:59:29;132.60;;;33.00;;
23181;SDS011;11759;51.282;6.642;2024-03-06T07:01:56;127.22;;;32.80;;
23181;SDS011;11759;51.282;6.642;2024-03-06T07:04:22;124.00;;;32.67;;
23181;SDS011;11759;51.282;6.642;2024-03-06T07:06:50;135.75;;;32.90;;
23181;SDS011;11759;51.282;6.642;2024-03-06T07:09:19;127.47;;;32.15;;
23181;SDS011;11759;51.282;6.642;2024-03-06T07:11:46;119.70;;;32.08;;
23181;SDS011;11759;51.282;6.642;2024-03-06T07:14:13;118.93;;;31.25;;
23181;SDS011;11759;51.282;6.642;2024-03-06T07:16:43;114.93;;;32.42;;
23181;SDS011;11759;51.282;6.642;2024-03-06T07:19:10;121.43;;;34.67;;
23181;SDS011;11759;51.282;6.642;2024-03-06T07:21:37;108.65;;;34.97;;
23181;SDS011;11759;51.282;6.642;2024-03-06T07:24:04;115.80;;;36.03;;
23181;SDS011;11759;51.282;6.642;2024-03-06T07:26:32;110.30;;;33.65;;
23181;SDS011;11759;51.282;6.642;2024-03-06T07:28:59;87.97;;;33.25;;
23181;SDS011;11759;51.282;6.642;2024-03-06T07:31:26;80.57;;;32.10;;
23181;SDS011;11759;51.282;6.642;2024-03-06T07:33:53;81.00;;;31.13;;
23181;SDS011;11759;51.282;6.642;2024-03-06T07:36:20;65.47;;;29.00;;
23181;SDS011;11759;51.282;6.642;2024-03-06T07:38:47;60.30;;;26.70;;
23181;SDS011;11759;51.282;6.642;2024-03-06T07:41:13;57.97;;;25.73;;
23181;SDS011;11759;51.282;6.642;2024-03-06T07:43:40;56.92;;;25.27;;
23181;SDS011;11759;51.282;6.642;2024-03-06T07:46:07;51.90;;;25.45;;
23181;SDS011;11759;51.282;6.642;2024-03-06T07:48:37;56.60;;;26.77;;
23181;SDS011;11759;51.282;6.642;2024-03-06T07:51:04;55.75;;;26.13;;
23181;SDS011;11759;51.282;6.642;2024-03-06T07:53:31;50.70;;;25.52;;
23181;SDS011;11759;51.282;6.642;2024-03-06T07:55:57;48.08;;;23.35;;
23181;SDS011;11759;51.282;6.642;2024-03-06T07:58:24;44.58;;;22.90;;
23181;SDS011;11759;51.282;6.642;2024-03-06T08:00:52;46.17;;;24.45;;
23181;SDS011;11759;51.282;6.642;2024-03-06T08:03:24;47.63;;;24.35;;
23181;SDS011;11759;51.282;6.642;2024-03-06T08:05:52;44.42;;;24.30;;
23181;SDS011;11759;51.282;6.642;2024-03-06T08:08:20;42.50;;;23.02;;
23181;SDS011;11759;51.282;6.642;2024-03-06T08:10:47;43.00;;;23.35;;
23181;SDS011;11759;51.282;6.642;2024-03-06T08:13:14;41.55;;;23.33;;
23181;SDS011;11759;51.282;6.642;2024-03-06T08:15:41;40.05;;;21.85;;
23181;SDS011;11759;51.282;6.642;2024-03-06T08:18:11;40.70;;;22.23;;
23181;SDS011;11759;51.282;6.642;2024-03-06T08:20:39;37.20;;;21.83;;
23181;SDS011;11759;51.282;6.642;2024-03-06T08:23:06;34.78;;;21.00;;
23181;SDS011;11759;51.282;6.642;2024-03-06T08:25:34;39.10;;;22.08;;
23181;SDS011;11759;51.282;6.642;2024-03-06T08:28:00;39.38;;;22.42;;
23181;SDS011;11759;51.282;6.642;2024-03-06T08:30:29;41.28;;;22.85;;
23181;SDS011;11759;51.282;6.642;2024-03-06T08:32:58;40.17;;;22.35;;
23181;SDS011;11759;51.282;6.642;2024-03-06T08:35:25;42.90;;;23.55;;
23181;SDS011;11759;51.282;6.642;2024-03-06T08:37:52;45.45;;;23.42;;
23181;SDS011;11759;51.282;6.642;2024-03-06T08:40:19;40.22;;;22.63;;
23181;SDS011;11759;51.282;6.642;2024-03-06T08:42:46;40.38;;;22.77;;
23181;SDS011;11759;51.282;6.642;2024-03-06T08:45:16;60.27;;;27.87;;
23181;SDS011;11759;51.282;6.642;2024-03-06T08:47:44;64.90;;;28.17;;
23181;SDS011;11759;51.282;6.642;2024-03-06T08:50:12;61.47;;;27.33;;
23181;SDS011;11759;51.282;6.642;2024-03-06T08:52:39;65.38;;;29.40;;
23181;SDS011;11759;51.282;6.642;2024-03-06T08:55:08;55.15;;;26.30;;
23181;SDS011;11759;51.282;6.642;2024-03-06T08:57:34;69.50;;;28.25;;
23181;SDS011;11759;51.282;6.642;2024-03-06T09:00:02;77.35;;;29.70;;
23181;SDS011;11759;51.282;6.642;2024-03-06T09:02:29;68.10;;;29.13;;
23181;SDS011;11759;51.282;6.642;2024-03-06T09:04:56;64.82;;;28.70;;
23181;SDS011;11759;51.282;6.642;2024-03-06T09:07:23;66.80;;;30.17;;
23181;SDS011;11759;51.282;6.642;2024-03-06T09:09:50;65.22;;;27.75;;
23181;SDS011;11759;51.282;6.642;2024-03-06T09:12:18;48.85;;;23.50;;
23181;SDS011;11759;51.282;6.642;2024-03-06T09:14:45;55.58;;;23.48;;
23181;SDS011;11759;51.282;6.642;2024-03-06T09:17:12;49.75;;;21.85;;
23181;SDS011;11759;51.282;6.642;2024-03-06T09:19:42;52.72;;;23.60;;
23181;SDS011;11759;51.282;6.642;2024-03-06T09:22:28;48.55;;;22.75;;
23181;SDS011;11759;51.282;6.642;2024-03-06T09:24:55;43.03;;;20.88;;
23181;SDS011;11759;51.282;6.642;2024-03-06T09:27:22;43.88;;;20.15;;
23181;SDS011;11759;51.282;6.642;2024-03-06T09:29:49;27.25;;;12.93;;
23181;SDS011;11759;51.282;6.642;2024-03-06T09:32:16;30.20;;;14.35;;
23181;SDS011;11759;51.282;6.642;2024-03-06T09:34:45;39.38;;;18.38;;
23181;SDS011;11759;51.282;6.642;2024-03-06T09:37:12;39.15;;;18.00;;
23181;SDS011;11759;51.282;6.642;2024-03-06T09:39:38;25.33;;;14.15;;
23181;SDS011;11759;51.282;6.642;2024-03-06T09:42:05;34.80;;;16.33;;
23181;SDS011;11759;51.282;6.642;2024-03-06T09:44:32;32.95;;;15.35;;
23181;SDS011;11759;51.282;6.642;2024-03-06T09:47:02;40.25;;;17.65;;
23181;SDS011;11759;51.282;6.642;2024-03-06T09:49:30;30.63;;;15.13;;
23181;SDS011;11759;51.282;6.642;2024-03-06T09:51:57;31.02;;;15.23;;
23181;SDS011;11759;51.282;6.642;2024-03-06T09:54:25;39.90;;;19.00;;
23181;SDS011;11759;51.282;6.642;2024-03-06T09:56:52;35.30;;;20.30;;
23181;SDS011;11759;51.282;6.642;2024-03-06T09:59:21;43.30;;;22.63;;
23181;SDS011;11759;51.282;6.642;2024-03-06T10:01:49;48.47;;;25.65;;
23181;SDS011;11759;51.282;6.642;2024-03-06T10:04:21;48.13;;;24.85;;
23181;SDS011;11759;51.282;6.642;2024-03-06T10:06:54;46.05;;;25.20;;
23181;SDS011;11759;51.282;6.642;2024-03-06T10:09:22;52.20;;;26.23;;
23181;SDS011;11759;51.282;6.642;2024-03-06T10:11:49;43.40;;;23.10;;
23181;SDS011;11759;51.282;6.642;2024-03-06T10:14:16;43.70;;;24.20;;
23181;SDS011;11759;51.282;6.642;2024-03-06T10:16:55;43.35;;;23.35;;
23181;SDS011;11759;51.282;6.642;2024-03-06T10:19:23;44.97;;;23.23;;
23181;SDS011;11759;51.282;6.642;2024-03-06T10:21:51;43.85;;;22.95;;
23181;SDS011;11759;51.282;6.642;2024-03-06T10:24:18;44.45;;;22.15;;
23181;SDS011;11759;51.282;6.642;2024-03-06T10:26:54;44.08;;;21.85;;
23181;SDS011;11759;51.282;6.642;2024-03-06T10:29:25;48.45;;;23.30;;
23181;SDS011;11759;51.282;6.642;2024-03-06T10:31:53;42.95;;;22.20;;
23181;SDS011;11759;51.282;6.642;2024-03-06T10:34:22;44.92;;;23.70;;
23181;SDS011;11759;51.282;6.642;2024-03-06T10:36:53;43.70;;;22.95;;
23181;SDS011;11759;51.282;6.642;2024-03-06T10:39:21;46.13;;;24.17;;
23181;SDS011;11759;51.282;6.642;2024-03-06T10:41:51;45.20;;;23.50;;
23181;SDS011;11759;51.282;6.642;2024-03-06T10:44:20;45.70;;;25.05;;
23181;SDS011;11759;51.282;6.642;2024-03-06T10:46:51;46.22;;;25.38;;
23181;SDS011;11759;51.282;6.642;2024-03-06T10:49:32;45.65;;;24.15;;
23181;SDS011;11759;51.282;6.642;2024-03-06T10:52:01;44.38;;;24.38;;
23181;SDS011;11759;51.282;6.642;2024-03-06T10:54:33;43.80;;;22.48;;
23181;SDS011;11759;51.282;6.642;2024-03-06T10:57:08;36.92;;;21.35;;
23181;SDS011;11759;51.282;6.642;2024-03-06T10:59:35;36.20;;;22.20;;
23181;SDS011;11759;51.282;6.642;2024-03-06T11:02:01;42.67;;;22.40;;
23181;SDS011;11759;51.282;6.642;2024-03-06T11:04:31;35.72;;;20.63;;
23181;SDS011;11759;51.282;6.642;2024-03-06T11:07:01;41.00;;;21.55;;
23181;SDS011;11759;51.282;6.642;2024-03-06T11:09:33;39.35;;;20.92;;
23181;SDS011;11759;51.282;6.642;2024-03-06T11:12:04;38.45;;;20.98;;
23181;SDS011;11759;51.282;6.642;2024-03-06T11:14:38;41.60;;;22.67;;
23181;SDS011;11759;51.282;6.642;2024-03-06T11:17:08;39.47;;;21.63;;
23181;SDS011;11759;51.282;6.642;2024-03-06T11:25:55;45.65;;;24.50;;
23181;SDS011;11759;51.282;6.642;2024-03-06T11:28:42;44.22;;;22.50;;
23181;SDS011;11759;51.282;6.642;2024-03-06T11:31:16;47.70;;;22.77;;
23181;SDS011;11759;51.282;6.642;2024-03-06T11:33:47;43.33;;;22.65;;
23181;SDS011;11759;51.282;6.642;2024-03-06T11:38:56;44.95;;;22.42;;
23181;SDS011;11759;51.282;6.642;2024-03-06T11:41:25;44.55;;;21.33;;
23181;SDS011;11759;51.282;6.642;2024-03-06T11:43:53;40.55;;;21.13;;
23181;SDS011;11759;51.282;6.642;2024-03-06T11:46:22;43.08;;;21.48;;
23181;SDS011;11759;51.282;6.642;2024-03-06T11:48:53;38.25;;;20.77;;
23181;SDS011;11759;51.282;6.642;2024-03-06T11:51:23;40.58;;;20.00;;
23181;SDS011;11759;51.282;6.642;2024-03-06T11:53:50;47.50;;;21.98;;
23181;SDS011;11759;51.282;6.642;2024-03-06T11:56:20;38.08;;;19.50;;
23181;SDS011;11759;51.282;6.642;2024-03-06T11:58:47;36.72;;;19.67;;
23181;SDS011;11759;51.282;6.642;2024-03-06T12:01:15;37.42;;;19.80;;
23181;SDS011;11759;51.282;6.642;2024-03-06T12:03:43;43.65;;;21.13;;
23181;SDS011;11759;51.282;6.642;2024-03-06T12:06:09;37.90;;;19.13;;
23181;SDS011;11759;51.282;6.642;2024-03-06T12:08:36;41.17;;;21.20;;
23181;SDS011;11759;51.282;6.642;2024-03-06T12:11:06;47.15;;;21.45;;
23181;SDS011;11759;51.282;6.642;2024-03-06T12:13:34;40.83;;;19.92;;
23181;SDS011;11759;51.282;6.642;2024-03-06T12:16:05;43.95;;;20.23;;
23181;SDS011;11759;51.282;6.642;2024-03-06T12:18:33;48.47;;;22.77;;
23181;SDS011;11759;51.282;6.642;2024-03-06T12:21:01;44.45;;;22.38;;
23181;SDS011;11759;51.282;6.642;2024-03-06T12:23:29;44.67;;;21.38;;
23181;SDS011;11759;51.282;6.642;2024-03-06T12:26:29;45.08;;;21.60;;
23181;SDS011;11759;51.282;6.642;2024-03-06T12:28:48;39.53;;;19.85;;
23181;SDS011;11759;51.282;6.642;2024-03-06T12:31:15;43.42;;;22.45;;
23181;SDS011;11759;51.282;6.642;2024-03-06T12:33:44;39.08;;;21.20;;
23181;SDS011;11759;51.282;6.642;2024-03-06T12:36:10;42.85;;;21.00;;
23181;SDS011;11759;51.282;6.642;2024-03-06T12:38:37;39.00;;;20.35;;
23181;SDS011;11759;51.282;6.642;2024-03-06T12:41:04;36.13;;;19.27;;
23181;SDS011;11759;51.282;6.642;2024-03-06T12:43:32;37.13;;;20.70;;
23181;SDS011;11759;51.282;6.642;2024-03-06T12:46:00;35.97;;;20.00;;
23181;SDS011;11759;51.282;6.642;2024-03-06T12:48:31;33.38;;;18.65;;
23181;SDS011;11759;51.282;6.642;2024-03-06T12:50:57;30.92;;;17.77;;
23181;SDS011;11759;51.282;6.642;2024-03-06T12:53:32;35.83;;;17.45;;
23181;SDS011;11759;51.282;6.642;2024-03-06T12:56:02;32.63;;;17.80;;
23181;SDS011;11759;51.282;6.642;2024-03-06T12:58:29;32.17;;;18.13;;
23181;SDS011;11759;51.282;6.642;2024-03-06T13:01:01;35.78;;;18.60;;
23181;SDS011;11759;51.282;6.642;2024-03-06T13:03:28;39.50;;;19.92;;
23181;SDS011;11759;51.282;6.642;2024-03-06T13:05:54;35.40;;;18.70;;
23181;SDS011;11759;51.282;6.642;2024-03-06T13:08:22;41.15;;;19.10;;
23181;SDS011;11759;51.282;6.642;2024-03-06T13:10:49;37.10;;;16.67;;
23181;SDS011;11759;51.282;6.642;2024-03-06T13:13:15;36.13;;;17.88;;
23181;SDS011;11759;51.282;6.642;2024-03-06T13:15:42;34.90;;;16.25;;
23181;SDS011;11759;51.282;6.642;2024-03-06T13:18:09;35.17;;;16.83;;
23181;SDS011;11759;51.282;6.642;2024-03-06T13:20:36;38.45;;;17.95;;
23181;SDS011;11759;51.282;6.642;2024-03-06T13:23:03;31.05;;;15.50;;
23181;SDS011;11759;51.282;6.642;2024-03-06T13:25:30;33.65;;;17.42;;
23181;SDS011;11759;51.282;6.642;2024-03-06T13:27:57;33.42;;;15.23;;
23181;SDS011;11759;51.282;6.642;2024-03-06T13:30:25;31.48;;;15.70;;
23181;SDS011;11759;51.282;6.642;2024-03-06T13:32:52;29.30;;;14.98;;
23181;SDS011;11759;51.282;6.642;2024-03-06T13:35:19;30.85;;;14.30;;
23181;SDS011;11759;51.282;6.642;2024-03-06T13:37:45;27.08;;;14.43;;
23181;SDS011;11759;51.282;6.642;2024-03-06T13:40:12;29.58;;;13.63;;
23181;SDS011;11759;51.282;6.642;2024-03-06T13:42:40;35.05;;;15.57;;
23181;SDS011;11759;51.282;6.642;2024-03-06T13:45:07;28.92;;;14.75;;
23181;SDS011;11759;51.282;6.642;2024-03-06T13:47:41;31.58;;;14.65;;
23181;SDS011;11759;51.282;6.642;2024-03-06T13:50:12;34.58;;;15.90;;
23181;SDS011;11759;51.282;6.642;2024-03-06T13:52:41;33.88;;;15.15;;
23181;SDS011;11759;51.282;6.642;2024-03-06T13:55:08;33.45;;;14.75;;
23181;SDS011;11759;51.282;6.642;2024-03-06T13:57:35;33.33;;;15.45;;
23181;SDS011;11759;51.282;6.642;2024-03-06T14:00:04;33.70;;;15.82;;
23181;SDS011;11759;51.282;6.642;2024-03-06T14:02:38;31.23;;;15.23;;
23181;SDS011;11759;51.282;6.642;2024-03-06T14:05:06;31.20;;;14.55;;
23181;SDS011;11759;51.282;6.642;2024-03-06T14:07:33;30.83;;;14.75;;
23181;SDS011;11759;51.282;6.642;2024-03-06T14:10:00;37.40;;;15.77;;
23181;SDS011;11759;51.282;6.642;2024-03-06T14:14:58;31.48;;;14.88;;
23181;SDS011;11759;51.282;6.642;2024-03-06T14:17:25;31.98;;;14.40;;
23181;SDS011;11759;51.282;6.642;2024-03-06T14:19:52;27.40;;;12.57;;
23181;SDS011;11759;51.282;6.642;2024-03-06T14:22:19;25.13;;;11.55;;
23181;SDS011;11759;51.282;6.642;2024-03-06T14:24:45;31.05;;;14.38;;
23181;SDS011;11759;51.282;6.642;2024-03-06T14:27:12;30.02;;;12.93;;
23181;SDS011;11759;51.282;6.642;2024-03-06T14:29:42;25.95;;;12.77;;
23181;SDS011;11759;51.282;6.642;2024-03-06T14:32:09;28.08;;;12.80;;
23181;SDS011;11759;51.282;6.642;2024-03-06T14:34:36;23.08;;;11.10;;
23181;SDS011;11759;51.282;6.642;2024-03-06T14:37:02;24.80;;;12.63;;
23181;SDS011;11759;51.282;6.642;2024-03-06T14:39:29;29.10;;;14.02;;
23181;SDS011;11759;51.282;6.642;2024-03-06T14:41:56;29.20;;;13.88;;
23181;SDS011;11759;51.282;6.642;2024-03-06T14:44:22;28.85;;;13.60;;